Time;durP1;ratioP1;P1;durP2;ratioP2;P2;SDS_P1;SDS_P2;PMS_P1;PMS_P2;Temp;Humidity;BMP_temperature;BMP_pressure;BME280_temperature;BME280_humidity;BME280_pressure;Samples;Min_cycle;Max_cycle;Signal;HPM_P1;HPM_P2
2022/04/23 00:00:59;;;;;;;8.43;2.33;;;;;;;12.25;87.65;98011.81;1739986;82;21091;-82
2022/04/23 00:03:25;;;;;;;4.47;2.02;;;;;;;12.17;89.50;98007.44;1724048;82;21023;-83
2022/04/23 00:05:52;;;;;;;5.90;2.08;;;;;;;12.19;86.56;98010.34;1761835;81;20972;-83
2022/04/23 00:08:19;;;;;;;4.12;1.57;;;;;;;12.14;87.47;98001.92;1727000;83;21511;-82
2022/04/23 00:10:46;;;;;;;8.98;2.20;;;;;;;12.11;89.00;98008.57;1732192;82;21074;-83
2022/04/23 00:13:13;;;;;;;4.15;2.02;;;;;;;12.14;86.99;98007.13;1739107;82;21080;-82
2022/04/23 00:15:39;;;;;;;5.55;2.00;;;;;;;12.09;87.53;97998.69;1737597;82;21058;-82
2022/04/23 00:18:08;;;;;;;5.62;1.72;;;;;;;12.09;85.83;97995.61;1719546;83;21133;-82
2022/04/23 00:20:36;;;;;;;7.30;1.95;;;;;;;12.06;87.56;97991.88;1739326;82;21030;-82
2022/04/23 00:23:05;;;;;;;4.65;1.90;;;;;;;11.98;89.62;97987.94;1754947;81;21072;-82
2022/04/23 00:25:34;;;;;;;5.95;1.47;;;;;;;11.96;89.02;97991.07;1754347;81;20998;-82
2022/04/23 00:28:01;;;;;;;2.92;1.35;;;;;;;11.92;89.42;97986.03;1735103;83;21095;-81
2022/04/23 00:30:28;;;;;;;3.65;1.37;;;;;;;11.85;89.63;97985.06;1717228;82;21571;-82
2022/04/23 00:33:00;;;;;;;3.75;1.40;;;;;;;11.85;88.54;97986.36;1705542;84;21083;-82
2022/04/23 00:35:27;;;;;;;5.12;1.30;;;;;;;11.81;88.78;97984.82;1718087;83;21007;-82
2022/04/23 00:37:53;;;;;;;2.37;1.12;;;;;;;11.79;87.70;97989.26;1707814;84;21052;-82
2022/04/23 00:40:24;;;;;;;6.33;1.30;;;;;;;11.75;88.65;97989.39;1739114;82;23351;-81
2022/04/23 00:42:53;;;;;;;3.30;1.20;;;;;;;11.70;89.70;97993.99;1738457;82;21019;-82
2022/04/23 00:45:21;;;;;;;2.52;1.50;;;;;;;11.71;88.56;97994.36;1760872;81;21044;-82
2022/04/23 00:47:49;;;;;;;3.17;1.00;;;;;;;11.70;88.19;97995.76;1729186;82;21098;-81
2022/04/23 00:50:21;;;;;;;1.87;1.20;;;;;;;11.71;88.16;97997.43;1738668;82;21006;-80
2022/04/23 00:52:48;;;;;;;5.70;1.30;;;;;;;11.70;87.00;97997.89;1717895;82;21051;-81
2022/04/23 00:55:16;;;;;;;4.62;1.30;;;;;;;11.64;88.95;98000.79;1732243;83;21085;-81
2022/04/23 00:57:44;;;;;;;2.02;1.02;;;;;;;11.63;88.83;98001.69;1708610;82;21041;-81
2022/04/23 01:00:12;;;;;;;2.98;0.90;;;;;;;11.60;88.94;98002.28;1706938;82;21029;-82
2022/04/23 01:02:39;;;;;;;3.02;1.00;;;;;;;11.52;89.63;98002.20;1712190;82;21055;-82
2022/04/23 01:05:10;;;;;;;2.22;1.27;;;;;;;11.54;90.13;98017.76;1740350;82;21012;-81
2022/04/23 01:07:43;;;;;;;3.17;1.20;;;;;;;11.43;91.39;98020.00;1745873;81;21052;-82
2022/04/23 01:10:11;;;;;;;3.30;1.30;;;;;;;11.43;90.23;98020.00;1767384;81;21078;-83
2022/04/23 01:12:39;;;;;;;3.83;1.60;;;;;;;11.30;92.36;98022.30;1755278;81;21009;-83
2022/04/23 01:15:11;;;;;;;3.55;1.32;;;;;;;11.26;91.51;98024.22;1727049;83;21062;-82
2022/04/23 01:17:38;;;;;;;4.37;1.37;;;;;;;11.19;91.44;98022.79;1745577;82;20984;-83
2022/04/23 01:20:14;;;;;;;4.15;1.30;;;;;;;11.13;91.54;98016.56;1740587;81;21120;-82
2022/04/23 01:22:44;;;;;;;3.98;1.20;;;;;;;11.06;90.40;98024.23;1734804;83;21055;-82
2022/04/23 01:25:14;;;;;;;2.90;1.20;;;;;;;10.99;90.18;98024.14;1720703;83;21081;-82
2022/04/23 01:27:42;;;;;;;2.50;1.17;;;;;;;10.90;91.34;98021.03;1735175;82;20987;-82
2022/04/23 01:30:10;;;;;;;3.42;1.20;;;;;;;10.80;92.82;98008.48;1735337;81;21040;-81
2022/04/23 01:32:37;;;;;;;3.37;1.10;;;;;;;10.75;92.25;98008.69;1757415;81;20990;-82
2022/04/23 01:35:05;;;;;;;2.33;1.00;;;;;;;10.71;91.80;98004.07;1739897;82;21112;-82
2022/04/23 01:37:32;;;;;;;4.00;0.98;;;;;;;10.67;92.52;97996.02;1738879;81;21011;-82
2022/04/23 01:39:59;;;;;;;2.77;0.90;;;;;;;10.67;91.25;97997.31;1770570;81;21014;-82
2022/04/23 01:42:25;;;;;;;1.77;1.05;;;;;;;10.66;91.62;98002.57;1770869;81;21446;-82
2022/04/23 01:44:53;;;;;;;4.05;1.10;;;;;;;10.63;92.00;98007.92;1771058;81;20963;-82
2022/04/23 01:47:20;;;;;;;3.58;1.00;;;;;;;10.62;92.12;98014.02;1751626;81;20999;-81
2022/04/23 01:49:47;;;;;;;2.27;0.95;;;;;;;10.60;92.45;98017.97;1761511;81;21012;-81
2022/04/23 01:52:14;;;;;;;4.33;1.00;;;;;;;10.62;90.96;98013.55;1745797;81;21036;-82
2022/04/23 01:54:41;;;;;;;1.75;0.90;;;;;;;10.59;91.93;98001.16;1745955;81;21024;-82
2022/04/23 01:57:07;;;;;;;1.62;0.90;;;;;;;10.60;90.12;98011.94;1743264;82;21071;-82
2022/04/23 01:59:34;;;;;;;0.70;0.70;;;;;;;10.53;91.78;98005.70;1742125;81;21365;-82
2022/04/23 02:02:01;;;;;;;1.80;1.20;;;;;;;10.51;91.96;97997.13;1744496;82;20987;-81
2022/04/23 02:04:29;;;;;;;3.33;0.90;;;;;;;10.53;90.83;97994.47;1746001;82;21020;-81
2022/04/23 02:06:55;;;;;;;2.87;0.90;;;;;;;10.52;89.83;97987.13;1745847;82;21492;-82
2022/04/23 02:09:23;;;;;;;1.47;1.00;;;;;;;10.52;90.61;97984.97;1749937;81;21098;-82
2022/04/23 02:11:49;;;;;;;2.80;0.80;;;;;;;10.51;90.09;97982.83;1748005;81;21048;-82
2022/04/23 02:14:16;;;;;;;3.37;0.95;;;;;;;10.50;90.98;97978.99;1746493;82;21015;-81
2022/04/23 02:16:43;;;;;;;0.95;0.70;;;;;;;10.51;90.50;97974.20;1770039;81;20990;-81
2022/04/23 02:19:10;;;;;;;1.57;0.70;;;;;;;10.53;90.06;97966.72;1774184;81;21050;-82
2022/04/23 02:21:37;;;;;;;2.40;0.78;;;;;;;10.57;90.08;97960.10;1752130;81;21040;-82
2022/04/23 02:24:06;;;;;;;1.17;0.78;;;;;;;10.54;90.04;97963.23;1754142;81;20986;-82
2022/04/23 02:26:32;;;;;;;4.80;0.70;;;;;;;10.57;89.67;97957.50;1718603;83;21069;-82
2022/04/23 02:28:59;;;;;;;0.78;0.50;;;;;;;10.55;89.29;97955.80;1725048;83;21000;-82
2022/04/23 02:31:26;;;;;;;1.05;0.60;;;;;;;10.64;88.57;97961.51;1740877;82;20974;-82
2022/04/23 02:33:52;;;;;;;2.22;0.70;;;;;;;10.60;88.70;97956.05;1743927;81;20992;-82
2022/04/23 02:36:19;;;;;;;1.17;0.72;;;;;;;10.58;88.12;97956.11;1717761;82;21122;-81
2022/04/23 02:38:49;;;;;;;2.52;0.90;;;;;;;10.63;87.36;97961.13;1742468;82;21580;-81
2022/04/23 02:41:14;;;;;;;5.78;0.90;;;;;;;10.64;87.77;97964.11;1742782;82;21062;-81
2022/04/23 02:43:41;;;;;;;1.80;0.85;;;;;;;10.66;87.33;97963.12;1743068;82;21064;-82
2022/04/23 02:46:09;;;;;;;2.22;0.80;;;;;;;10.69;87.11;97965.60;1737733;83;21115;-81
2022/04/23 02:48:38;;;;;;;2.87;1.00;;;;;;;10.72;87.63;97959.41;1737893;83;21042;-81
2022/04/23 02:51:04;;;;;;;2.33;0.93;;;;;;;10.74;87.96;97962.36;1737724;83;21558;-82
2022/04/23 02:53:31;;;;;;;2.80;0.90;;;;;;;10.77;87.51;97965.27;1737804;83;21026;-82
2022/04/23 02:56:02;;;;;;;1.40;0.70;;;;;;;10.77;88.18;97967.03;1740788;82;20983;-82
2022/04/23 02:58:27;;;;;;;2.65;1.20;;;;;;;10.77;87.41;97958.77;1737098;83;21569;-81
2022/04/23 03:00:54;;;;;;;3.30;1.00;;;;;;;10.77;88.30;97958.77;1742637;82;21048;-82
2022/04/23 03:03:21;;;;;;;3.58;1.50;;;;;;;10.73;87.82;97963.25;1716374;84;21058;-80
2022/04/23 03:05:50;;;;;;;2.33;1.30;;;;;;;10.72;87.62;97961.58;1744786;82;20995;-82
2022/04/23 03:08:19;;;;;;;3.87;1.90;;;;;;;10.68;87.61;97963.92;1743571;82;20975;-82
2022/04/23 03:10:45;;;;;;;2.15;1.20;;;;;;;10.63;88.51;97956.77;1743311;82;21372;-81
2022/04/23 03:13:13;;;;;;;1.12;0.82;;;;;;;10.59;87.54;97950.48;1732608;82;21035;-81
2022/04/23 03:15:42;;;;;;;3.52;1.42;;;;;;;10.55;86.64;97953.67;1745035;82;21045;-82
2022/04/23 03:18:13;;;;;;;3.80;1.62;;;;;;;10.51;87.70;97946.45;1746776;81;21063;-81
2022/04/23 03:20:43;;;;;;;5.15;1.75;;;;;;;10.51;87.73;97958.14;1726329;82;21018;-81
2022/04/23 03:23:12;;;;;;;4.22;1.52;;;;;;;10.50;87.94;97949.98;1745214;81;21050;-81
2022/04/23 03:25:41;;;;;;;6.47;1.98;;;;;;;10.51;87.90;97953.41;1747907;82;21441;-82
2022/04/23 03:28:08;;;;;;;3.47;1.70;;;;;;;10.52;87.68;97949.45;1727961;82;21017;-81
2022/04/23 03:30:35;;;;;;;5.75;1.60;;;;;;;10.54;88.27;97947.63;1719957;83;21071;-82
2022/04/23 03:33:02;;;;;;;5.00;1.98;;;;;;;10.56;88.50;97951.44;1744954;82;20980;-82
2022/04/23 03:35:29;;;;;;;5.58;1.90;;;;;;;10.59;88.13;97952.62;1737391;83;21008;-81
2022/04/23 03:37:58;;;;;;;4.40;1.65;;;;;;;10.62;87.29;97951.17;1737392;83;21007;-82
2022/04/23 03:40:25;;;;;;;4.40;1.50;;;;;;;10.61;87.64;97948.20;1730509;83;21063;-83
2022/04/23 03:42:52;;;;;;;3.92;1.20;;;;;;;10.58;88.00;97953.52;1731804;83;21068;-81
2022/04/23 03:45:18;;;;;;;2.20;1.07;;;;;;;10.62;87.58;97952.94;1711353;83;20980;-82
2022/04/23 03:47:47;;;;;;;2.95;1.40;;;;;;;10.59;88.89;97952.62;1745088;82;21563;-82
2022/04/23 03:50:16;;;;;;;3.90;1.20;;;;;;;10.62;88.09;97959.44;1745200;82;21007;-82
2022/04/23 03:52:43;;;;;;;5.35;1.32;;;;;;;10.60;88.04;97959.95;1735747;83;21019;-82
2022/04/23 03:55:13;;;;;;;4.28;1.17;;;;;;;10.58;87.54;97963.08;1734648;83;20995;-82
2022/04/23 03:57:47;;;;;;;4.53;1.20;;;;;;;10.58;87.15;97959.17;1736761;83;21038;-82
2022/04/23 04:00:15;;;;;;;3.98;1.30;;;;;;;10.60;87.00;97965.16;1737216;83;21051;-81
2022/04/23 04:02:44;;;;;;;3.35;1.45;;;;;;;10.53;88.25;97963.28;1737415;82;20996;-81
2022/04/23 04:05:11;;;;;;;3.02;1.20;;;;;;;10.53;87.99;97964.58;1734803;83;21024;-82
2022/04/23 04:07:44;;;;;;;2.62;1.20;;;;;;;10.55;87.59;97964.06;1736108;83;21054;-82
2022/04/23 04:10:13;;;;;;;2.72;1.20;;;;;;;10.54;87.71;97963.66;1734504;83;21468;-82
2022/04/23 04:12:40;;;;;;;4.00;1.37;;;;;;;10.54;87.64;97965.83;1737438;82;21098;-80
2022/04/23 04:15:10;;;;;;;4.08;1.70;;;;;;;10.58;86.81;97966.97;1736345;82;21003;-82
2022/04/23 04:17:38;;;;;;;3.42;1.40;;;;;;;10.60;87.89;97957.36;1734453;83;21035;-81
2022/04/23 04:20:08;;;;;;;3.00;1.17;;;;;;;10.65;87.25;97963.21;1737225;83;21030;-81
2022/04/23 04:22:35;;;;;;;2.50;1.10;;;;;;;10.66;88.25;97957.09;1734705;83;20975;-82
2022/04/23 04:25:03;;;;;;;3.00;1.30;;;;;;;10.67;87.47;97953.59;1735857;83;21276;-82
2022/04/23 04:27:30;;;;;;;5.00;1.17;;;;;;;10.68;88.85;97948.77;1737252;83;20995;-82
2022/04/23 04:29:57;;;;;;;2.65;1.15;;;;;;;10.69;89.27;97950.00;1737174;83;21014;-82
2022/04/23 04:32:23;;;;;;;1.90;0.93;;;;;;;10.70;88.52;97950.84;1706180;83;20993;-82
2022/04/23 04:34:50;;;;;;;2.42;1.15;;;;;;;10.68;87.78;97952.66;1715944;83;21038;-82
2022/04/23 04:37:17;;;;;;;5.33;1.20;;;;;;;10.63;89.34;97946.84;1744498;82;21025;-82
2022/04/23 04:39:43;;;;;;;2.27;1.15;;;;;;;10.62;89.10;97939.94;1739447;82;21039;-82
2022/04/23 04:42:11;;;;;;;3.60;1.10;;;;;;;10.60;89.57;97934.80;1769168;81;21007;-82
2022/04/23 04:44:38;;;;;;;1.95;1.00;;;;;;;10.62;88.56;97943.84;1769143;81;20976;-80
2022/04/23 04:47:11;;;;;;;;;;;;;;;10.63;88.91;97946.38;1760920;81;21642;-81
2022/04/23 04:49:39;;;;;;;1.77;0.98;;;;;;;10.63;90.17;97952.88;1743093;81;20108;-82
2022/04/23 04:52:06;;;;;;;2.37;1.40;;;;;;;10.65;89.43;97948.45;1739017;82;21035;-81
2022/04/23 04:54:33;;;;;;;2.37;1.25;;;;;;;10.67;88.35;97957.02;1713274;82;21028;-81
2022/04/23 04:57:02;;;;;;;2.80;1.32;;;;;;;10.73;88.18;97955.92;1730334;82;21042;-81
2022/04/23 04:59:34;;;;;;;5.25;1.62;;;;;;;10.72;88.88;97956.38;1736140;82;20991;-80
2022/04/23 05:01:59;;;;;;;2.55;1.30;;;;;;;10.73;89.45;97959.36;1733052;83;21087;-82
2022/04/23 05:04:26;;;;;;;3.65;1.40;;;;;;;10.81;89.14;97965.52;1745160;82;21026;-82
2022/04/23 05:06:53;;;;;;;4.12;1.35;;;;;;;10.88;89.55;97966.95;1732096;82;21064;-82
2022/04/23 05:09:20;;;;;;;4.17;1.52;;;;;;;10.94;89.18;97966.67;1717507;82;21001;-83
2022/04/23 05:11:46;;;;;;;5.55;2.50;;;;;;;11.03;88.23;97974.52;1729921;82;21072;-82
2022/04/23 05:14:13;;;;;;;5.97;2.58;;;;;;;11.04;89.21;97970.14;1719112;83;20974;-81
2022/04/23 05:16:39;;;;;;;5.12;2.10;;;;;;;11.09;88.46;97968.19;1717866;82;20994;-83
2022/04/23 05:19:06;;;;;;;4.12;1.52;;;;;;;11.11;88.85;97975.47;1717603;83;21033;-81
2022/04/23 05:21:32;;;;;;;3.62;1.40;;;;;;;11.12;89.25;97967.61;1735885;81;21007;-81
2022/04/23 05:24:00;;;;;;;3.12;1.60;;;;;;;11.17;88.54;97971.75;1758050;81;20972;-80
2022/04/23 05:26:27;;;;;;;4.30;1.87;;;;;;;11.21;88.46;97983.23;1737726;82;20999;-80
2022/04/23 05:28:53;;;;;;;4.78;1.70;;;;;;;11.30;87.72;97980.23;1719152;83;21502;-80
2022/04/23 05:31:21;;;;;;;7.42;2.10;;;;;;;11.25;88.32;97978.28;1723439;82;21060;-82
2022/04/23 05:33:47;;;;;;;4.87;1.60;;;;;;;11.33;87.59;97981.37;1728811;81;21063;-82
2022/04/23 05:36:14;;;;;;;5.85;1.72;;;;;;;11.31;87.77;97971.50;1723370;83;21011;-82
2022/04/23 05:38:41;;;;;;;6.42;1.90;;;;;;;11.35;87.50;97981.31;1731971;83;21031;-82
2022/04/23 05:41:08;;;;;;;4.17;1.62;;;;;;;11.41;87.25;97975.82;1705590;84;21488;-82
2022/04/23 05:43:34;;;;;;;3.92;1.32;;;;;;;11.48;86.24;97978.97;1709852;83;21027;-81
2022/04/23 05:46:02;;;;;;;2.12;1.22;;;;;;;11.52;85.88;97981.37;1735558;82;21016;-80
2022/04/23 05:48:29;;;;;;;3.37;1.70;;;;;;;11.53;86.65;97991.33;1756056;82;21062;-81
2022/04/23 05:50:55;;;;;;;2.90;1.40;;;;;;;11.54;87.16;97995.16;1730377;82;21050;-82
2022/04/23 05:53:22;;;;;;;3.58;1.45;;;;;;;11.55;86.61;97993.40;1711935;84;21513;-81
2022/04/23 05:55:50;;;;;;;3.50;1.60;;;;;;;11.54;87.17;97989.13;1690585;84;21032;-82
2022/04/23 05:58:16;;;;;;;3.12;1.37;;;;;;;11.55;87.11;97988.20;1732511;82;21577;-82
2022/04/23 06:00:43;;;;;;;2.85;1.25;;;;;;;11.59;86.87;97985.00;1710202;83;21007;-81
2022/04/23 06:03:11;;;;;;;2.77;1.40;;;;;;;11.59;87.29;97995.41;1726571;83;21036;-82
2022/04/23 06:05:39;;;;;;;2.92;1.25;;;;;;;11.61;86.94;97993.11;1730573;83;20996;-81
2022/04/23 06:08:06;;;;;;;2.47;1.30;;;;;;;11.68;86.25;98004.94;1689860;83;21512;-81
2022/04/23 06:10:34;;;;;;;3.15;1.60;;;;;;;11.70;86.34;98005.70;1705556;82;21020;-80
2022/04/23 06:13:01;;;;;;;2.00;1.17;;;;;;;11.73;86.66;98005.55;1705891;83;21056;-81
2022/04/23 06:15:28;;;;;;;3.00;1.32;;;;;;;11.79;86.42;98007.48;1731774;82;21030;-82
2022/04/23 06:17:55;;;;;;;3.83;1.65;;;;;;;11.81;86.28;98003.89;1732783;81;21013;-81
2022/04/23 06:20:21;;;;;;;2.58;1.20;;;;;;;11.83;86.56;98008.56;1737102;82;21021;-80
2022/04/23 06:22:48;;;;;;;2.85;1.30;;;;;;;11.83;86.21;98004.66;1755720;82;21028;-83
2022/04/23 06:25:14;;;;;;;4.75;1.52;;;;;;;11.87;86.67;98007.96;1750744;81;21076;-81
2022/04/23 06:27:41;;;;;;;3.85;1.47;;;;;;;11.93;86.61;98010.30;1726665;82;21565;-81
2022/04/23 06:30:09;;;;;;;4.37;1.52;;;;;;;12.00;85.94;98015.62;1729084;83;21070;-82
2022/04/23 06:32:38;;;;;;;3.50;1.60;;;;;;;11.98;86.33;98021.36;1681406;85;20977;-81
2022/04/23 06:35:07;;;;;;;2.33;1.32;;;;;;;12.00;86.12;98029.94;1710918;84;21090;-82
2022/04/23 06:37:41;;;;;;;4.83;1.70;;;;;;;12.06;85.90;98032.72;1711225;84;21043;-81
2022/04/23 06:40:12;;;;;;;3.12;1.40;;;;;;;12.05;85.74;98031.02;1710993;84;21078;-82
2022/04/23 06:42:41;;;;;;;4.67;1.70;;;;;;;12.12;85.61;98030.65;1690708;84;21071;-81
2022/04/23 06:45:10;;;;;;;3.77;1.65;;;;;;;12.15;85.81;98034.86;1707765;84;21574;-82
2022/04/23 06:47:37;;;;;;;3.65;1.75;;;;;;;12.22;85.05;98040.17;1699576;84;21052;-81
2022/04/23 06:50:06;;;;;;;3.98;1.40;;;;;;;12.29;84.38;98044.61;1695361;84;21022;-82
2022/04/23 06:52:33;;;;;;;4.20;1.40;;;;;;;12.28;84.24;98046.38;1710001;84;21029;-81
2022/04/23 06:54:59;;;;;;;3.67;1.42;;;;;;;12.34;84.40;98049.16;1709351;84;21507;-82
2022/04/23 06:57:26;;;;;;;2.60;1.37;;;;;;;12.43;84.37;98053.06;1708139;84;21030;-81
2022/04/23 06:59:53;;;;;;;3.72;1.55;;;;;;;12.50;84.30;98053.16;1709036;84;20952;-81
2022/04/23 07:02:21;;;;;;;4.78;1.65;;;;;;;12.59;84.01;98060.97;1710307;83;21095;-81
2022/04/23 07:04:48;;;;;;;5.00;1.40;;;;;;;12.69;83.86;98059.58;1691088;84;21520;-82
2022/04/23 07:07:15;;;;;;;3.37;1.60;;;;;;;12.67;83.76;98062.29;1693763;84;21051;-80
2022/04/23 07:09:41;;;;;;;3.10;1.50;;;;;;;12.71;83.14;98058.61;1708680;84;20991;-81
2022/04/23 07:12:10;;;;;;;3.72;1.65;;;;;;;12.78;83.06;98058.30;1697110;84;21031;-82
2022/04/23 07:14:38;;;;;;;5.58;1.45;;;;;;;12.82;82.77;98067.18;1700700;84;21514;-82
2022/04/23 07:17:04;;;;;;;3.08;1.52;;;;;;;12.93;82.38;98066.19;1709793;84;21022;-81
2022/04/23 07:19:32;;;;;;;2.65;1.30;;;;;;;12.98;82.33;98069.02;1708025;84;21019;-80
2022/04/23 07:21:59;;;;;;;5.37;1.62;;;;;;;13.00;82.28;98069.31;1694622;85;21060;-81
2022/04/23 07:24:25;;;;;;;2.72;1.37;;;;;;;13.06;82.13;98070.77;1707312;84;21114;-80
2022/04/23 07:26:52;;;;;;;4.22;1.60;;;;;;;13.08;82.12;98066.31;1691571;83;21045;-81
2022/04/23 07:29:19;;;;;;;3.30;1.60;;;;;;;13.11;81.82;98068.75;1694544;84;21571;-81
2022/04/23 07:31:45;;;;;;;5.00;1.70;;;;;;;13.21;81.99;98076.51;1695104;83;21078;-81
2022/04/23 07:39:36;;;;;;;6.45;1.60;;;;;;;13.48;80.92;98078.61;1755342;81;21044;-80
2022/04/23 07:42:05;;;;;;;4.08;1.80;;;;;;;13.56;79.74;98089.48;1737598;81;21134;-81
2022/04/23 07:44:32;;;;;;;3.12;1.45;;;;;;;13.52;79.83;98095.80;1756652;81;21674;-80
2022/04/23 07:46:59;;;;;;;5.72;1.50;;;;;;;13.52;79.87;98091.88;1700742;84;21032;-81
2022/04/23 07:49:26;;;;;;;4.00;1.42;;;;;;;13.46;80.56;98092.21;1706489;83;21040;-80
2022/04/23 07:51:52;;;;;;;2.92;1.50;;;;;;;13.56;80.35;98086.88;1707963;83;21063;-81
2022/04/23 07:54:19;;;;;;;4.53;1.72;;;;;;;13.69;80.29;98094.91;1713556;83;21511;-81
2022/04/23 07:56:46;;;;;;;2.25;1.40;;;;;;;13.72;80.20;98096.04;1710512;83;20975;-80
2022/04/23 07:59:12;;;;;;;5.37;1.65;;;;;;;13.80;79.51;98100.38;1718765;83;21551;-80
2022/04/23 08:01:39;;;;;;;6.75;1.92;;;;;;;13.91;79.81;98098.52;1710815;83;21011;-80
2022/04/23 08:04:06;;;;;;;5.17;1.40;;;;;;;14.07;79.39;98103.27;1735750;82;21000;-81
2022/04/23 08:06:34;;;;;;;9.78;2.00;;;;;;;14.08;78.00;98107.55;1743269;82;21059;-81
2022/04/23 08:09:01;;;;;;;7.62;2.08;;;;;;;14.06;77.63;98114.63;1739680;82;21023;-81
2022/04/23 08:11:27;;;;;;;7.87;2.95;;;;;;;14.10;77.27;98112.23;1736684;82;21066;-81
2022/04/23 08:13:54;;;;;;;4.62;1.80;;;;;;;14.20;77.14;98116.48;1735675;82;21042;-81
2022/04/23 08:16:20;;;;;;;5.37;1.80;;;;;;;14.10;76.92;98120.55;1740140;82;21557;-81
2022/04/23 08:18:47;;;;;;;4.53;2.05;;;;;;;14.21;76.91;98123.89;1721193;81;21003;-82
2022/04/23 08:21:14;;;;;;;3.90;1.90;;;;;;;14.13;76.91;98123.00;1727981;81;20981;-81
2022/04/23 08:23:41;;;;;;;6.15;1.87;;;;;;;14.16;77.04;98125.91;1738498;81;21032;-80
2022/04/23 08:26:07;;;;;;;4.12;1.62;;;;;;;14.16;75.38;98124.59;1735860;82;21001;-81
2022/04/23 08:31:21;;;;;;;6.55;2.02;;;;;;;14.19;76.08;98128.36;1765290;80;20947;-80
2022/04/23 08:34:09;;;;;;;3.75;1.90;;;;;;;14.28;75.59;98111.70;1747358;81;21020;-81
2022/04/23 08:36:16;;;;;;;8.05;2.30;;;;;;;14.46;75.34;98121.59;1749475;81;21062;-80
2022/04/23 08:38:42;;;;;;;6.50;2.30;;;;;;;14.49;75.23;98122.71;1743871;81;21650;-80
2022/04/23 08:41:11;;;;;;;4.65;2.02;;;;;;;14.68;74.86;98124.30;1735926;81;21123;-80
2022/04/23 08:43:38;;;;;;;5.33;2.15;;;;;;;14.61;74.74;98124.30;1720850;83;21051;-81
2022/04/23 08:46:04;;;;;;;5.85;2.17;;;;;;;14.70;74.86;98127.23;1761794;81;21042;-81
2022/04/23 08:48:36;;;;;;;7.20;2.40;;;;;;;14.80;74.54;98126.69;1746752;81;21016;-81
2022/04/23 08:51:05;;;;;;;7.08;2.58;;;;;;;14.81;74.24;98123.98;1745813;81;20999;-81
2022/04/23 08:53:34;;;;;;;4.53;2.17;;;;;;;14.97;74.25;98119.17;1749762;81;20967;-81
2022/04/23 08:56:01;;;;;;;6.20;2.47;;;;;;;15.05;73.94;98124.33;1737023;82;21020;-81
2022/04/23 08:58:31;;;;;;;5.25;2.42;;;;;;;15.23;73.33;98125.02;1718223;83;21009;-81
2022/04/23 09:00:57;;;;;;;7.17;2.77;;;;;;;15.34;73.10;98124.83;1735413;81;21071;-81
2022/04/23 09:03:24;;;;;;;5.40;3.00;;;;;;;15.50;72.95;98129.55;1735293;82;20994;-82
2022/04/23 09:05:54;;;;;;;7.92;2.98;;;;;;;15.54;72.57;98124.50;1738427;82;21046;-81
2022/04/23 09:08:20;;;;;;;9.88;3.20;;;;;;;15.56;72.54;98130.48;1752585;81;21628;-81
2022/04/23 09:10:56;;;;;;;6.17;2.90;;;;;;;15.59;72.48;98135.52;1742496;81;21019;-81
2022/04/23 09:13:32;;;;;;;6.92;3.17;;;;;;;15.62;71.89;98124.03;1712276;82;20964;-80
2022/04/23 09:24:46;;;;;;;9.28;2.70;;;;;;;15.61;71.77;98145.91;1730602;82;21052;-81
2022/04/23 09:27:13;;;;;;;7.33;3.30;;;;;;;15.65;71.93;98149.55;1737226;82;21003;-81
2022/04/23 09:29:40;;;;;;;9.35;3.80;;;;;;;15.66;71.52;98144.70;1751042;81;20992;-81
2022/04/23 09:32:16;;;;;;;9.93;3.22;;;;;;;15.70;70.86;98146.67;1740273;81;21032;-81
2022/04/23 09:34:43;;;;;;;9.23;3.10;;;;;;;15.71;70.83;98149.17;1746713;81;21044;-82
2022/04/23 09:37:09;;;;;;;5.80;3.25;;;;;;;15.73;70.67;98154.84;1767905;81;21058;-81
2022/04/23 09:39:38;;;;;;;6.53;3.35;;;;;;;15.77;70.40;98145.84;1744500;82;21042;-81
2022/04/23 09:42:19;;;;;;;7.37;3.02;;;;;;;15.73;70.82;98145.66;1743583;82;21011;-81
2022/04/23 09:44:47;;;;;;;7.00;3.15;;;;;;;15.87;70.52;98146.95;1713915;82;21084;-82
2022/04/23 09:47:32;;;;;;;6.85;2.92;;;;;;;15.97;70.29;98151.17;1742947;82;21046;-80
2022/04/23 09:49:58;;;;;;;7.42;3.02;;;;;;;16.15;69.64;98150.48;1741882;82;21542;-81
2022/04/23 09:52:30;;;;;;;7.65;3.35;;;;;;;16.33;68.86;98148.00;1715437;84;21561;-82
2022/04/23 09:54:57;;;;;;;10.43;2.85;;;;;;;16.53;69.05;98141.95;1745369;81;21038;-81
2022/04/23 09:57:25;;;;;;;7.15;2.70;;;;;;;16.74;68.25;98151.06;1712053;84;21007;-81
2022/04/23 09:59:52;;;;;;;7.72;2.98;;;;;;;16.79;66.78;98148.99;1743317;81;21098;-79
2022/04/23 10:02:19;;;;;;;7.92;3.77;;;;;;;16.88;66.67;98142.31;1748552;82;21034;-83
2022/04/23 10:04:46;;;;;;;4.97;3.20;;;;;;;16.87;67.30;98142.80;1713583;84;21070;-80
2022/04/23 10:07:17;;;;;;;8.35;3.60;;;;;;;16.92;65.85;98149.05;1743679;82;21017;-81
2022/04/23 10:09:46;;;;;;;5.67;3.02;;;;;;;16.83;66.12;98143.08;1720690;82;20999;-81
2022/04/23 10:12:19;;;;;;;7.53;3.20;;;;;;;16.95;66.75;98146.23;1713993;83;21079;-81
2022/04/23 10:14:54;;;;;;;8.83;3.08;;;;;;;17.15;65.95;98145.34;1708312;82;21046;-80
2022/04/23 10:17:22;;;;;;;9.48;3.15;;;;;;;17.22;65.85;98137.44;1737470;81;20979;-80
2022/04/23 10:19:49;;;;;;;7.47;2.77;;;;;;;17.28;64.79;98139.64;1745529;82;21054;-81
2022/04/23 10:22:25;;;;;;;5.45;2.77;;;;;;;17.23;64.24;98142.59;1746223;82;21073;-81
2022/04/23 10:25:13;;;;;;;8.08;2.80;;;;;;;17.09;63.81;98136.13;1750069;81;21534;-82
2022/04/23 10:27:41;;;;;;;7.95;3.25;;;;;;;17.07;64.64;98139.33;1743329;82;21075;-81
2022/04/23 10:30:10;;;;;;;6.03;2.83;;;;;;;17.14;64.76;98141.05;1687688;84;21016;-81
2022/04/23 10:32:41;;;;;;;6.75;2.70;;;;;;;17.08;64.48;98135.25;1741194;82;21051;-82
2022/04/23 10:35:25;;;;;;;4.83;2.65;;;;;;;17.10;64.88;98131.22;1735078;83;21134;-81
2022/04/23 10:37:52;;;;;;;4.62;2.90;;;;;;;17.10;64.51;98133.37;1737632;82;21011;-81
2022/04/23 10:40:20;;;;;;;4.95;2.80;;;;;;;17.17;64.41;98136.44;1687284;84;21025;-80
2022/04/23 10:43:09;;;;;;;6.40;2.85;;;;;;;17.39;64.77;98128.39;1709445;84;21066;-80
2022/04/23 10:45:39;;;;;;;9.70;2.72;;;;;;;17.44;64.07;98135.02;1712787;84;21034;-81
2022/04/23 10:48:25;;;;;;;8.35;2.80;;;;;;;17.22;63.87;98142.20;1680858;84;21023;-81
2022/04/23 10:51:16;;;;;;;5.25;2.15;;;;;;;16.99;63.80;98149.47;1716528;82;20959;-81
2022/04/23 10:53:48;;;;;;;6.67;2.33;;;;;;;16.88;63.93;98142.31;1727830;83;21063;-80
2022/04/23 10:56:21;;;;;;;6.33;2.40;;;;;;;16.84;63.36;98141.67;1681138;85;21025;-81
2022/04/23 10:58:48;;;;;;;6.62;2.25;;;;;;;16.84;63.81;98146.92;1681397;85;21025;-81
2022/04/23 11:01:24;;;;;;;7.70;2.60;;;;;;;16.97;64.00;98148.73;1682781;84;21052;-81
2022/04/23 11:04:08;;;;;;;5.35;2.50;;;;;;;17.11;64.18;98147.36;1734690;82;21054;-80
2022/04/23 11:12:37;;;;;;;4.25;2.20;;;;;;;17.86;63.67;98141.39;1727104;83;21598;-80
2022/04/23 11:15:15;;;;;;;3.80;2.00;;;;;;;17.74;61.83;98143.05;1681333;83;21003;-81
2022/04/23 11:17:55;;;;;;;5.12;2.10;;;;;;;17.76;62.17;98146.89;1681834;85;20990;-81
2022/04/23 11:20:31;;;;;;;5.83;2.02;;;;;;;17.57;62.23;98138.14;1681868;85;21005;-81
2022/04/23 11:23:00;;;;;;;5.78;2.00;;;;;;;17.48;60.72;98146.17;1733089;83;21040;-81
2022/04/23 11:25:28;;;;;;;4.95;2.10;;;;;;;17.36;60.24;98150.47;1727293;83;21039;-82
2022/04/23 11:28:00;;;;;;;4.87;2.15;;;;;;;17.33;60.95;98151.14;1726835;83;21031;-81
2022/04/23 11:30:29;;;;;;;3.95;2.30;;;;;;;17.28;61.19;98154.92;1728617;81;21027;-81
2022/04/23 11:33:11;;;;;;;6.65;2.27;;;;;;;17.28;60.78;98156.72;1731311;82;21304;-83
2022/04/23 11:35:38;;;;;;;3.95;2.05;;;;;;;17.42;61.01;98147.42;1734420;82;21123;-79
2022/04/23 11:38:05;;;;;;;6.10;2.52;;;;;;;17.41;60.21;98138.36;1734472;83;21108;-80
2022/04/23 11:40:34;;;;;;;4.00;2.37;;;;;;;17.75;59.72;98142.60;1734260;82;21023;-80
2022/04/23 11:43:01;;;;;;;3.00;2.05;;;;;;;17.94;57.56;98153.52;1735959;82;21015;-81
2022/04/23 11:45:28;;;;;;;4.30;2.00;;;;;;;18.19;54.99;98141.28;1740380;81;21495;-80
2022/04/23 11:47:55;;;;;;;8.35;2.52;;;;;;;18.40;54.21;98146.32;1703546;83;21574;-81
2022/04/23 11:50:22;;;;;;;4.90;2.05;;;;;;;18.43;54.57;98142.13;1717830;83;20985;-79
2022/04/23 11:53:01;;;;;;;5.05;2.20;;;;;;;18.48;55.88;98144.42;1716799;81;21038;-81
2022/04/23 11:55:30;;;;;;;4.58;1.95;;;;;;;18.72;55.85;98139.63;1707685;84;20979;-81
2022/04/23 11:58:07;;;;;;;4.30;1.90;;;;;;;19.18;55.69;98134.91;1713872;84;21063;-81
2022/04/23 12:00:34;;;;;;;2.70;1.80;;;;;;;19.46;55.73;98132.35;1729001;82;21074;-81
2022/04/23 12:03:02;;;;;;;3.37;1.92;;;;;;;19.70;54.30;98140.64;1716658;82;21047;-81